Time;durP1;ratioP1;P1;durP2;ratioP2;P2;SDS_P1;SDS_P2;PMS_P1;PMS_P2;Temp;Humidity;BMP_temperature;BMP_pressure;BME280_temperature;BME280_humidity;BME280_pressure;Samples;Min_cycle;Max_cycle;Signal;HPM_P1;HPM_P2
2022/11/25 00:01:37;;;;;;;15.20;3.55;;;8.50;99.90;;;;;;6064558;23;91726;-74
2022/11/25 00:04:04;;;;;;;10.82;3.97;;;8.60;99.90;;;;;;6065837;23;93266;-74
2022/11/25 00:06:35;;;;;;;13.13;3.15;;;8.50;99.90;;;;;;6065740;23;92964;-74
2022/11/25 00:09:08;;;;;;;17.55;4.07;;;8.60;99.90;;;;;;6038693;23;94790;-74
2022/11/25 00:11:38;;;;;;;10.55;3.58;;;8.60;99.90;;;;;;6064541;23;92468;-74
2022/11/25 00:14:07;;;;;;;16.90;4.75;;;8.60;99.90;;;;;;6063817;23;95614;-74
2022/11/25 00:16:34;;;;;;;10.40;4.22;;;8.60;99.90;;;;;;6063634;23;95627;-74
2022/11/25 00:19:00;;;;;;;8.52;3.20;;;8.60;99.90;;;;;;6064420;23;96996;-74
2022/11/25 00:21:31;;;;;;;11.20;3.65;;;8.60;99.90;;;;;;6064211;23;92439;-74
2022/11/25 00:24:01;;;;;;;11.20;3.75;;;8.60;99.90;;;;;;6064651;23;96112;-74
2022/11/25 00:26:31;;;;;;;13.43;3.97;;;8.60;99.90;;;;;;6067257;23;92819;-74
2022/11/25 00:29:01;;;;;;;13.63;4.68;;;8.60;99.90;;;;;;6041440;23;92444;-74
2022/11/25 00:31:31;;;;;;;11.32;3.60;;;8.70;99.90;;;;;;6064979;23;92403;-74
2022/11/25 00:33:58;;;;;;;16.13;4.38;;;8.70;99.90;;;;;;6065454;23;95548;-74
2022/11/25 00:36:28;;;;;;;10.25;3.88;;;8.70;99.90;;;;;;6066588;23;95262;-74
2022/11/25 00:39:01;;;;;;;16.73;4.15;;;8.70;99.90;;;;;;6065635;23;92828;-74
2022/11/25 00:44:34;;;;;;;11.05;3.83;;;8.70;99.90;;;;;;6065006;23;95727;-74
2022/11/25 00:47:08;;;;;;;14.20;3.70;;;8.70;99.90;;;;;;6065126;23;95540;-74
2022/11/25 00:49:36;;;;;;;13.20;3.97;;;8.70;99.90;;;;;;6065382;23;92938;-74
2022/11/25 00:52:04;;;;;;;13.07;4.57;;;8.70;99.90;;;;;;6065723;23;92172;-74
2022/11/25 00:54:31;;;;;;;12.48;3.20;;;8.70;99.90;;;;;;6064693;23;97067;-74
2022/11/25 00:56:58;;;;;;;12.68;3.83;;;8.70;99.90;;;;;;6065140;23;96039;-74
2022/11/25 00:59:25;;;;;;;9.07;3.67;;;8.70;99.90;;;;;;6039677;23;94718;-74
2022/11/25 01:01:52;;;;;;;10.30;3.67;;;8.70;99.90;;;;;;6065225;23;92494;-74
2022/11/25 01:04:19;;;;;;;12.60;3.70;;;8.80;99.90;;;;;;6065229;23;95880;-74
2022/11/25 01:06:46;;;;;;;15.63;4.00;;;8.80;99.90;;;;;;6064891;23;95309;-74
2022/11/25 01:09:14;;;;;;;11.20;3.55;;;8.70;99.90;;;;;;6067013;23;92359;-74
2022/11/25 01:11:41;;;;;;;11.35;3.90;;;8.80;99.90;;;;;;6064997;23;92448;-74
2022/11/25 01:14:08;;;;;;;13.32;3.97;;;8.80;99.90;;;;;;6065080;23;95752;-75
2022/11/25 01:16:35;;;;;;;10.65;4.40;;;8.80;99.90;;;;;;6066860;23;93051;-74
2022/11/25 01:19:03;;;;;;;11.55;3.42;;;8.80;99.90;;;;;;6066985;23;92293;-75
2022/11/25 01:21:32;;;;;;;9.93;4.05;;;8.80;99.90;;;;;;6064969;23;92929;-74
2022/11/25 01:24:00;;;;;;;10.05;3.58;;;8.80;99.90;;;;;;6065067;23;95648;-74
2022/11/25 01:26:28;;;;;;;12.65;3.63;;;8.80;99.90;;;;;;6066417;23;95250;-75
2022/11/25 01:29:11;;;;;;;20.45;4.78;;;8.80;99.90;;;;;;6065357;23;92386;-74
2022/11/25 01:31:38;;;;;;;13.25;3.25;;;8.80;99.90;;;;;;6065177;23;92406;-74
2022/11/25 01:34:15;;;;;;;8.95;3.03;;;8.70;99.90;;;;;;6066541;23;95752;-74
2022/11/25 01:36:42;;;;;;;16.45;4.05;;;8.70;99.90;;;;;;6040672;23;95474;-75
2022/11/25 01:39:20;;;;;;;16.80;4.20;;;8.60;99.90;;;;;;6065232;23;92491;-74
2022/11/25 01:41:49;;;;;;;12.82;4.75;;;8.70;99.90;;;;;;6065999;23;91650;-74
2022/11/25 01:44:15;;;;;;;14.55;3.80;;;8.70;99.90;;;;;;6064592;23;95778;-74
2022/11/25 01:47:03;;;;;;;11.88;3.60;;;8.70;99.90;;;;;;6064637;23;93326;-74
2022/11/25 01:49:47;;;;;;;13.60;4.00;;;8.70;99.90;;;;;;6039551;23;94887;-74
2022/11/25 01:52:26;;;;;;;17.85;4.00;;;8.80;99.90;;;;;;6065394;23;92918;-74
2022/11/25 01:54:57;;;;;;;14.73;3.67;;;8.70;99.90;;;;;;6066540;23;93040;-74
2022/11/25 01:57:28;;;;;;;11.38;3.47;;;8.70;99.90;;;;;;6064651;23;95623;-74
2022/11/25 02:00:00;;;;;;;8.05;4.03;;;8.70;99.90;;;;;;6065230;23;92481;-75
2022/11/25 02:02:30;;;;;;;15.70;3.88;;;8.70;99.90;;;;;;6065535;23;92323;-74
2022/11/25 02:04:58;;;;;;;11.52;3.47;;;8.70;99.90;;;;;;6064641;23;94750;-74
2022/11/25 02:07:36;;;;;;;9.57;3.45;;;8.70;99.90;;;;;;6065105;23;101819;-74
2022/11/25 02:10:07;;;;;;;10.10;3.30;;;8.80;99.90;;;;;;6065281;23;92427;-75
2022/11/25 02:12:35;;;;;;;10.70;3.30;;;8.70;99.90;;;;;;6066482;23;92408;-74
2022/11/25 02:15:04;;;;;;;10.48;3.33;;;8.80;99.90;;;;;;6063206;23;98492;-75
2022/11/25 02:17:31;;;;;;;7.68;2.95;;;8.80;99.90;;;;;;6066453;23;95274;-74
2022/11/25 02:20:09;;;;;;;7.25;2.90;;;8.80;99.90;;;;;;6064707;23;92400;-74
2022/11/25 02:22:55;;;;;;;11.18;4.10;;;8.80;99.90;;;;;;6040896;23;92393;-74
2022/11/25 02:25:26;;;;;;;8.15;2.78;;;8.90;99.90;;;;;;6064478;23;95125;-75
2022/11/25 02:28:03;;;;;;;14.52;3.13;;;8.90;99.90;;;;;;6064803;23;95243;-75
2022/11/25 02:30:31;;;;;;;11.25;3.17;;;8.90;99.90;;;;;;6065218;23;92446;-74
2022/11/25 02:32:59;;;;;;;12.63;3.30;;;8.90;99.90;;;;;;6041175;23;91746;-75
2022/11/25 02:35:29;;;;;;;10.75;3.72;;;8.90;99.90;;;;;;6064607;23;95407;-75
2022/11/25 02:38:02;;;;;;;15.00;3.90;;;8.80;99.90;;;;;;6064294;23;95221;-74
2022/11/25 02:40:29;;;;;;;9.20;3.60;;;8.90;99.90;;;;;;6063912;23;94919;-75
2022/11/25 02:42:59;;;;;;;11.05;3.47;;;8.80;99.90;;;;;;6066406;23;92420;-74
2022/11/25 02:45:48;;;;;;;15.98;3.75;;;8.90;99.90;;;;;;6064072;23;95752;-74
2022/11/25 02:48:16;;;;;;;9.55;3.40;;;8.80;99.90;;;;;;6064609;23;95466;-74
2022/11/25 02:50:43;;;;;;;14.50;3.88;;;8.80;99.90;;;;;;6064675;23;92915;-75
2022/11/25 02:53:10;;;;;;;15.07;3.88;;;8.80;99.90;;;;;;6040813;23;92465;-74
2022/11/25 02:55:37;;;;;;;13.95;3.53;;;8.80;99.90;;;;;;6064665;23;95826;-74
2022/11/25 02:58:05;;;;;;;12.50;3.83;;;8.80;99.90;;;;;;6065020;23;95230;-74
2022/11/25 03:00:32;;;;;;;16.83;4.03;;;8.80;99.90;;;;;;6064895;23;92423;-75
2022/11/25 03:03:00;;;;;;;13.60;4.45;;;8.80;99.90;;;;;;6040451;23;92303;-75
2022/11/25 03:05:27;;;;;;;16.40;4.80;;;8.80;99.90;;;;;;6038851;23;98295;-74
2022/11/25 03:07:54;;;;;;;12.82;3.53;;;8.90;99.90;;;;;;6064437;23;95220;-74
2022/11/25 03:10:21;;;;;;;17.30;5.28;;;8.90;99.90;;;;;;6064883;23;92407;-74
2022/11/25 03:12:48;;;;;;;12.30;3.95;;;8.90;99.90;;;;;;6064789;23;92974;-74
2022/11/25 03:15:16;;;;;;;13.38;4.18;;;8.80;99.90;;;;;;6064531;23;94578;-74
2022/11/25 03:17:44;;;;;;;13.38;3.78;;;8.80;99.90;;;;;;6040068;23;95235;-75
2022/11/25 03:20:14;;;;;;;12.55;4.13;;;8.80;99.90;;;;;;6064819;23;92419;-75
2022/11/25 03:22:42;;;;;;;11.95;4.22;;;8.80;99.90;;;;;;6065294;23;91626;-74
2022/11/25 03:25:10;;;;;;;13.10;3.45;;;8.80;99.90;;;;;;6064782;23;93279;-75
2022/11/25 03:27:38;;;;;;;15.32;3.78;;;8.80;99.90;;;;;;6064330;23;95644;-75
2022/11/25 03:30:13;;;;;;;13.70;3.50;;;8.80;99.90;;;;;;6062918;23;94869;-75
2022/11/25 03:32:41;;;;;;;14.05;4.70;;;8.90;99.90;;;;;;6064870;23;92389;-75
2022/11/25 03:35:08;;;;;;;10.57;3.30;;;8.80;99.90;;;;;;6064133;23;95649;-74
2022/11/25 03:37:36;;;;;;;8.48;4.07;;;8.80;99.90;;;;;;6064351;23;95262;-75
2022/11/25 03:40:04;;;;;;;9.82;4.18;;;8.90;99.90;;;;;;6040297;23;92370;-75
2022/11/25 03:42:31;;;;;;;15.00;4.05;;;8.90;99.90;;;;;;6064485;23;92456;-75
2022/11/25 03:44:59;;;;;;;11.75;3.63;;;8.90;99.90;;;;;;6063932;23;94471;-75
2022/11/25 03:47:26;;;;;;;12.38;4.15;;;8.90;99.90;;;;;;6064712;23;94151;-75
2022/11/25 03:49:53;;;;;;;12.38;4.22;;;8.90;99.90;;;;;;6064580;23;92371;-75
2022/11/25 03:52:20;;;;;;;11.88;4.15;;;8.90;99.90;;;;;;6040920;23;92415;-75
2022/11/25 03:54:48;;;;;;;12.90;3.97;;;8.90;99.90;;;;;;6038513;23;97775;-75
2022/11/25 03:57:20;;;;;;;13.00;4.00;;;8.90;99.90;;;;;;6041216;23;97964;-75
2022/11/25 03:59:48;;;;;;;13.07;4.20;;;8.90;99.90;;;;;;6040418;23;92613;-75
2022/11/25 04:02:16;;;;;;;14.20;4.50;;;8.90;99.90;;;;;;6064371;23;92472;-75
2022/11/25 04:04:43;;;;;;;15.13;4.05;;;8.90;99.90;;;;;;6064114;23;95698;-75
2022/11/25 04:07:10;;;;;;;10.32;4.00;;;8.90;99.90;;;;;;6039897;23;94597;-75
2022/11/25 04:09:37;;;;;;;11.30;3.80;;;9.00;99.90;;;;;;6066159;23;92363;-75
2022/11/25 04:14:56;;;;;;;12.75;4.07;;;8.90;99.90;;;;;;6064154;23;95237;-74
2022/11/25 04:17:23;;;;;;;13.65;3.97;;;8.90;99.90;;;;;;6064264;23;95243;-75
2022/11/25 04:19:50;;;;;;;16.30;4.53;;;8.90;99.90;;;;;;6063011;23;94936;-75
2022/11/25 04:22:17;;;;;;;10.82;4.20;;;8.90;99.90;;;;;;6064318;23;92515;-75
2022/11/25 04:24:46;;;;;;;12.05;4.50;;;8.90;99.90;;;;;;6064063;23;95318;-75
2022/11/25 04:27:17;;;;;;;10.88;4.38;;;8.90;99.90;;;;;;6064005;23;95122;-75
2022/11/25 04:29:46;;;;;;;9.95;3.85;;;8.90;99.90;;;;;;6064249;23;92433;-74
2022/11/25 04:32:14;;;;;;;11.35;3.83;;;8.90;99.90;;;;;;6063940;23;92415;-74
2022/11/25 04:34:41;;;;;;;18.02;4.75;;;8.90;99.90;;;;;;6063927;23;95714;-75
2022/11/25 04:37:09;;;;;;;10.65;4.35;;;8.90;99.90;;;;;;6064001;23;94948;-74
2022/11/25 04:39:39;;;;;;;11.02;3.67;;;8.90;99.90;;;;;;6065959;23;92400;-75
2022/11/25 04:42:37;;;;;;;11.48;4.28;;;8.90;99.90;;;;;;6065602;23;92387;-75
2022/11/25 04:45:14;;;;;;;13.43;4.65;;;8.90;99.90;;;;;;6061689;23;96523;-75
2022/11/25 04:47:51;;;;;;;9.48;4.57;;;8.90;99.90;;;;;;6063923;23;97636;-75
2022/11/25 04:50:21;;;;;;;11.52;4.53;;;9.00;99.90;;;;;;6063800;23;92513;-75
2022/11/25 04:53:08;;;;;;;15.45;4.85;;;9.00;99.90;;;;;;6064857;23;92426;-75
2022/11/25 04:55:36;;;;;;;13.13;4.97;;;9.00;99.90;;;;;;6063906;23;95419;-75
2022/11/25 04:58:06;;;;;;;15.45;4.95;;;9.10;99.90;;;;;;6040363;23;95334;-75
2022/11/25 05:00:34;;;;;;;15.82;4.65;;;9.10;99.90;;;;;;6063870;23;92430;-75
2022/11/25 05:03:04;;;;;;;12.43;4.10;;;9.10;99.90;;;;;;6064692;23;91736;-75
2022/11/25 05:05:32;;;;;;;10.65;4.95;;;9.10;99.90;;;;;;6063528;23;95486;-74
2022/11/25 05:07:59;;;;;;;14.52;5.18;;;9.10;99.90;;;;;;6063427;23;95519;-74
2022/11/25 05:10:26;;;;;;;15.98;5.00;;;9.10;99.90;;;;;;6063366;23;94802;-74
2022/11/25 05:12:54;;;;;;;10.60;4.35;;;9.20;99.90;;;;;;6089810;23;92483;-75
2022/11/25 05:15:21;;;;;;;16.20;4.72;;;9.20;99.90;;;;;;6040674;23;95557;-74
2022/11/25 05:17:48;;;;;;;13.80;4.50;;;9.10;99.90;;;;;;6065133;23;95477;-74
2022/11/25 05:20:22;;;;;;;14.75;5.35;;;9.10;99.90;;;;;;6065334;23;92527;-75
2022/11/25 05:22:49;;;;;;;11.63;4.45;;;9.10;99.90;;;;;;6065319;23;92413;-75
2022/11/25 05:25:19;;;;;;;12.98;4.40;;;9.10;99.90;;;;;;6065075;23;95367;-75
2022/11/25 05:28:05;;;;;;;11.40;4.28;;;9.10;99.90;;;;;;6044676;23;94891;-75
2022/11/25 05:30:32;;;;;;;14.20;4.38;;;9.10;99.90;;;;;;6066988;23;92428;-75
2022/11/25 05:32:59;;;;;;;16.38;4.97;;;9.10;99.90;;;;;;6064991;23;92422;-74
2022/11/25 05:35:26;;;;;;;14.70;4.30;;;9.10;99.90;;;;;;6063166;23;98182;-75
2022/11/25 05:37:53;;;;;;;16.58;5.00;;;9.10;99.90;;;;;;6066516;23;95134;-74
2022/11/25 05:40:20;;;;;;;13.88;5.07;;;9.10;99.90;;;;;;6066718;23;92413;-74
2022/11/25 05:43:01;;;;;;;16.10;5.28;;;9.10;99.90;;;;;;6065311;23;92455;-75
2022/11/25 05:45:30;;;;;;;18.75;5.57;;;9.10;99.90;;;;;;6064391;23;95501;-74
2022/11/25 05:47:57;;;;;;;14.95;5.00;;;9.20;99.90;;;;;;6064973;23;95323;-74
2022/11/25 05:50:26;;;;;;;20.08;5.60;;;9.20;99.90;;;;;;6064671;23;92466;-74
2022/11/25 05:53:07;;;;;;;16.80;5.50;;;9.20;99.90;;;;;;6065145;23;91781;-74
2022/11/25 05:55:35;;;;;;;20.58;5.68;;;9.20;99.90;;;;;;6064776;23;95751;-74
2022/11/25 05:58:05;;;;;;;17.10;4.75;;;9.20;99.90;;;;;;6064459;23;94860;-74
2022/11/25 06:00:33;;;;;;;12.45;5.53;;;9.20;99.90;;;;;;6063455;23;94834;-74
2022/11/25 06:03:05;;;;;;;18.50;5.13;;;9.30;99.90;;;;;;6065037;23;93261;-74
2022/11/25 06:05:34;;;;;;;12.93;5.95;;;9.30;99.90;;;;;;6064878;23;95599;-74
2022/11/25 06:08:02;;;;;;;10.25;4.60;;;9.30;99.90;;;;;;6064940;23;95201;-74
2022/11/25 06:10:29;;;;;;;16.45;5.35;;;9.30;99.90;;;;;;6064861;23;92504;-74
2022/11/25 06:12:56;;;;;;;15.45;5.43;;;9.30;99.90;;;;;;6065116;23;92457;-74
2022/11/25 06:15:23;;;;;;;17.42;6.00;;;9.40;99.90;;;;;;6066315;23;92444;-74
2022/11/25 06:17:54;;;;;;;15.50;6.30;;;9.40;99.90;;;;;;6065004;23;94771;-74
2022/11/25 06:20:24;;;;;;;16.83;6.30;;;9.40;99.90;;;;;;6064661;23;92374;-74
2022/11/25 06:22:50;;;;;;;11.57;4.97;;;9.40;99.90;;;;;;6040551;23;92575;-74
2022/11/25 06:25:23;;;;;;;17.35;6.93;;;9.40;99.90;;;;;;6040044;23;97844;-75
2022/11/25 06:27:51;;;;;;;16.35;5.70;;;9.40;99.90;;;;;;6064615;23;97638;-74
2022/11/25 06:30:38;;;;;;;21.77;5.82;;;9.40;99.90;;;;;;6064923;23;92466;-74
2022/11/25 06:33:15;;;;;;;17.60;6.25;;;9.40;99.90;;;;;;6064615;23;92966;-74
2022/11/25 06:35:44;;;;;;;17.00;5.65;;;9.50;99.90;;;;;;6064600;23;95585;-74
2022/11/25 06:38:11;;;;;;;14.02;7.60;;;9.50;99.90;;;;;;6066374;23;92948;-75
2022/11/25 06:40:38;;;;;;;12.10;6.88;;;9.50;99.90;;;;;;6066743;23;92423;-75
2022/11/25 06:43:05;;;;;;;14.70;6.68;;;9.50;99.90;;;;;;6067038;23;91678;-75
2022/11/25 06:45:32;;;;;;;16.40;7.45;;;9.60;99.90;;;;;;6064111;23;93235;-75
2022/11/25 06:47:59;;;;;;;15.20;6.65;;;9.60;99.90;;;;;;6064487;23;95869;-75
2022/11/25 06:50:27;;;;;;;20.30;7.20;;;9.60;99.90;;;;;;6063331;23;95653;-75
2022/11/25 06:52:53;;;;;;;17.27;6.90;;;9.70;99.90;;;;;;6064805;23;92465;-75
2022/11/25 06:55:20;;;;;;;21.70;6.72;;;9.70;99.90;;;;;;6066239;23;93374;-75
2022/11/25 06:57:47;;;;;;;16.70;6.93;;;9.70;99.90;;;;;;6064841;23;95303;-75
2022/11/25 07:00:15;;;;;;;16.98;7.15;;;9.70;99.90;;;;;;6064861;23;92331;-75
2022/11/25 07:02:42;;;;;;;14.80;6.72;;;9.70;99.90;;;;;;6063948;23;110459;-75
2022/11/25 07:05:14;;;;;;;16.48;7.78;;;9.70;99.90;;;;;;6064698;23;93334;-75
2022/11/25 07:07:41;;;;;;;13.07;7.07;;;9.80;99.90;;;;;;6065062;23;94573;-75
2022/11/25 07:10:08;;;;;;;21.15;7.60;;;9.80;99.90;;;;;;6066604;23;92306;-75
2022/11/25 07:12:35;;;;;;;18.85;7.72;;;9.80;99.90;;;;;;6066193;23;92464;-75
2022/11/25 07:15:03;;;;;;;13.65;7.38;;;9.80;99.90;;;;;;6063328;23;94952;-75
2022/11/25 07:17:30;;;;;;;19.23;7.55;;;9.80;99.90;;;;;;6065904;23;95287;-75
2022/11/25 07:19:57;;;;;;;20.23;6.72;;;9.80;99.90;;;;;;6066509;23;92350;-75
2022/11/25 07:22:23;;;;;;;22.02;7.25;;;9.80;99.90;;;;;;6066201;23;92485;-74
2022/11/25 07:24:50;;;;;;;18.05;7.38;;;9.80;99.90;;;;;;6040300;23;95741;-75
2022/11/25 07:27:17;;;;;;;96.65;33.00;;;9.80;99.90;;;;;;6064536;23;95408;-75
2022/11/25 07:29:44;;;;;;;22.02;9.10;;;9.80;99.90;;;;;;6064066;23;92389;-75
2022/11/25 07:32:34;;;;;;;24.85;9.82;;;9.80;99.90;;;;;;6064960;23;91541;-75
2022/11/25 07:35:01;;;;;;;22.42;16.13;;;9.80;99.90;;;;;;6066192;23;93075;-75
2022/11/25 07:37:28;;;;;;;27.55;24.27;;;9.80;99.90;;;;;;6063747;23;95746;-75
2022/11/25 07:39:55;;;;;;;25.83;18.60;;;9.90;99.90;;;;;;6062617;23;94708;-75
2022/11/25 07:42:22;;;;;;;34.30;23.52;;;9.80;99.90;;;;;;6063775;23;92467;-75
2022/11/25 07:44:49;;;;;;;20.90;11.00;;;9.90;99.90;;;;;;6063573;23;92484;-75
2022/11/25 07:47:35;;;;;;;16.73;7.13;;;9.90;99.90;;;;;;6063174;23;94043;-75
2022/11/25 07:50:03;;;;;;;17.08;10.05;;;9.90;99.90;;;;;;6066241;23;92437;-75
2022/11/25 07:52:30;;;;;;;12.48;8.55;;;9.90;99.90;;;;;;6063686;23;92569;-75
2022/11/25 07:54:57;;;;;;;15.88;6.82;;;9.90;99.90;;;;;;6062741;23;111957;-75
2022/11/25 07:57:24;;;;;;;14.27;6.57;;;9.90;99.90;;;;;;6066126;23;92975;-75
2022/11/25 07:59:51;;;;;;;13.38;9.07;;;9.90;99.90;;;;;;6066311;23;92394;-75
2022/11/25 08:02:17;;;;;;;12.13;6.22;;;9.80;99.90;;;;;;6066523;23;93067;-75
2022/11/25 08:04:44;;;;;;;14.85;7.22;;;9.80;99.90;;;;;;6064247;23;95523;-75
2022/11/25 08:07:11;;;;;;;16.50;5.40;;;9.80;99.90;;;;;;6065671;23;95255;-75
2022/11/25 08:09:38;;;;;;;15.55;5.10;;;9.70;99.90;;;;;;6064491;23;92340;-75
2022/11/25 08:12:05;;;;;;;17.80;5.07;;;9.70;99.90;;;;;;6066062;23;92356;-75
2022/11/25 08:14:33;;;;;;;15.65;5.63;;;9.70;99.90;;;;;;6065608;23;92417;-75
2022/11/25 08:17:03;;;;;;;12.68;5.55;;;9.60;99.90;;;;;;6064018;23;94169;-75
2022/11/25 08:19:31;;;;;;;17.52;5.65;;;9.60;99.90;;;;;;6065815;23;92373;-75
2022/11/25 08:21:58;;;;;;;12.73;5.18;;;9.60;99.90;;;;;;6065079;23;91702;-75
2022/11/25 08:24:25;;;;;;;12.93;5.07;;;9.50;99.90;;;;;;6064521;23;93948;-75
2022/11/25 08:26:53;;;;;;;14.60;5.65;;;9.50;99.90;;;;;;6063757;23;93845;-75
2022/11/25 08:29:20;;;;;;;15.07;5.82;;;9.50;99.90;;;;;;6063101;23;94875;-75
2022/11/25 08:31:47;;;;;;;13.55;5.60;;;9.50;99.90;;;;;;6063906;23;92499;-75
2022/11/25 08:34:20;;;;;;;15.07;5.60;;;9.60;99.90;;;;;;6065423;23;103769;-75
2022/11/25 08:36:50;;;;;;;12.57;5.43;;;9.60;99.90;;;;;;6063496;23;95045;-75
2022/11/25 08:39:19;;;;;;;13.65;6.07;;;9.60;99.90;;;;;;6039956;23;92384;-75
2022/11/25 08:42:06;;;;;;;14.18;5.93;;;9.60;99.90;;;;;;6065688;23;92441;-74
2022/11/25 08:44:34;;;;;;;12.13;5.35;;;9.50;99.90;;;;;;6063961;23;93385;-75
2022/11/25 08:47:01;;;;;;;12.50;5.60;;;9.60;99.90;;;;;;6067202;23;93022;-75
2022/11/25 08:49:29;;;;;;;14.73;6.90;;;9.60;99.90;;;;;;6067180;23;92364;-75
2022/11/25 08:51:59;;;;;;;33.22;14.43;;;9.50;99.90;;;;;;6067206;23;92355;-75
2022/11/25 08:54:26;;;;;;;45.05;19.58;;;9.60;99.90;;;;;;6014791;23;98138;-75
2022/11/25 08:56:53;;;;;;;42.58;17.13;;;9.60;99.90;;;;;;6065806;23;95461;-75
2022/11/25 08:59:21;;;;;;;17.73;8.02;;;9.70;99.90;;;;;;6064734;23;93073;-73
2022/11/25 09:01:48;;;;;;;17.63;6.00;;;9.70;99.90;;;;;;6066039;23;104096;-73
2022/11/25 09:04:15;;;;;;;13.35;8.15;;;9.80;99.90;;;;;;6066612;23;93073;-73
2022/11/25 09:06:42;;;;;;;15.68;6.18;;;9.80;99.90;;;;;;6064680;23;94175;-73
2022/11/25 09:09:09;;;;;;;9.70;5.93;;;9.80;99.90;;;;;;6065309;23;92447;-73
2022/11/25 09:11:36;;;;;;;12.43;6.07;;;9.90;99.90;;;;;;6065375;23;91776;-73
2022/11/25 09:14:03;;;;;;;15.05;6.07;;;10.00;99.90;;;;;;6066784;23;93142;-73
2022/11/25 09:16:30;;;;;;;12.57;5.30;;;10.10;99.90;;;;;;6065053;23;95431;-73
2022/11/25 09:18:58;;;;;;;12.77;5.18;;;10.20;99.90;;;;;;6063601;23;94796;-73
2022/11/25 09:21:25;;;;;;;13.18;5.03;;;10.30;99.90;;;;;;6066891;23;92458;-73
2022/11/25 09:23:53;;;;;;;11.18;5.93;;;10.30;99.90;;;;;;6066657;23;92380;-73
2022/11/25 09:26:29;;;;;;;15.65;5.88;;;10.40;99.90;;;;;;6066605;23;93023;-73
2022/11/25 09:28:56;;;;;;;11.02;5.05;;;10.60;99.90;;;;;;6040912;23;92363;-73
2022/11/25 09:31:23;;;;;;;10.82;5.32;;;10.70;99.90;;;;;;6064830;23;101332;-73
2022/11/25 09:33:50;;;;;;;8.15;4.90;;;10.70;99.90;;;;;;6064892;23;95874;-73
2022/11/25 09:36:19;;;;;;;10.85;5.70;;;10.80;99.90;;;;;;6065454;23;95382;-73
2022/11/25 09:38:46;;;;;;;13.75;5.20;;;10.80;99.90;;;;;;6040898;23;92400;-73
2022/11/25 09:48:07;;;;;;;6.97;5.05;;;11.10;99.90;;;;;;6064659;23;97896;-73
2022/11/25 09:50:49;;;;;;;10.60;5.32;;;11.10;99.90;;;;;;6066985;23;92295;-73
2022/11/25 09:53:45;;;;;;;8.25;5.15;;;11.10;99.90;;;;;;6064815;23;92477;-73
2022/11/25 09:56:31;;;;;;;7.53;5.07;;;11.10;99.90;;;;;;6058506;23;95718;-73
2022/11/25 09:59:18;;;;;;;10.02;4.85;;;11.10;99.90;;;;;;6064767;23;94592;-73
2022/11/25 10:01:57;;;;;;;14.38;5.78;;;11.10;99.90;;;;;;6066725;23;92356;-73
2022/11/25 10:04:26;;;;;;;11.88;5.15;;;11.10;99.90;;;;;;6041598;23;91644;-73
2022/11/25 10:06:57;;;;;;;11.38;5.50;;;11.10;99.90;;;;;;6040266;23;95640;-73
2022/11/25 10:09:27;;;;;;;9.18;5.03;;;11.20;99.90;;;;;;6064962;23;94707;-73
2022/11/25 10:12:10;;;;;;;15.27;7.28;;;11.20;99.90;;;;;;6065472;23;94686;-73
2022/11/25 10:14:48;;;;;;;14.15;5.97;;;11.20;99.90;;;;;;6066736;23;92418;-73
2022/11/25 10:17:29;;;;;;;12.10;5.40;;;11.20;99.90;;;;;;6066774;23;93196;-73
2022/11/25 10:20:00;;;;;;;12.80;5.43;;;11.20;99.90;;;;;;6064374;23;95807;-73
2022/11/25 10:22:29;;;;;;;6.22;4.47;;;11.30;99.90;;;;;;6065241;23;92356;-73
2022/11/25 10:25:00;;;;;;;10.15;4.50;;;11.30;99.90;;;;;;6064651;23;92891;-73
2022/11/25 10:27:36;;;;;;;8.57;4.55;;;11.30;99.90;;;;;;6066530;23;93222;-73
2022/11/25 10:30:15;;;;;;;10.15;5.00;;;11.40;99.90;;;;;;6066763;23;92809;-73
2022/11/25 10:32:50;;;;;;;9.85;4.90;;;11.50;99.90;;;;;;6040938;23;92503;-73
2022/11/25 10:35:55;;;;;;;9.43;4.72;;;11.40;99.90;;;;;;6066631;23;92349;-73
2022/11/25 10:38:35;;;;;;;9.00;4.28;;;11.50;99.90;;;;;;6063171;23;95702;-73
2022/11/25 10:41:03;;;;;;;9.70;4.70;;;11.50;99.90;;;;;;6066152;23;95484;-73
2022/11/25 10:43:31;;;;;;;7.85;4.93;;;11.50;99.90;;;;;;6065178;23;92391;-73
2022/11/25 10:46:34;;;;;;;12.88;4.70;;;11.60;99.90;;;;;;6063221;23;92765;-73
2022/11/25 10:49:49;;;;;;;9.18;5.05;;;11.70;99.90;;;;;;6066256;23;93386;-73
2022/11/25 10:52:22;;;;;;;9.68;4.53;;;11.70;99.90;;;;;;6064977;23;92878;-73
2022/11/25 10:55:20;;;;;;;5.82;4.10;;;11.60;99.90;;;;;;6064871;23;92322;-73
2022/11/25 10:57:47;;;;;;;8.25;4.45;;;11.70;99.90;;;;;;6067251;23;92552;-73
2022/11/25 11:00:35;;;;;;;9.30;4.75;;;11.70;99.90;;;;;;6064920;23;93188;-73
2022/11/25 11:03:22;;;;;;;8.57;4.25;;;11.80;99.90;;;;;;6064346;23;95996;-73
2022/11/25 11:05:54;;;;;;;11.15;4.10;;;11.80;99.90;;;;;;6063379;23;95469;-73
2022/11/25 11:08:35;;;;;;;12.60;4.50;;;11.80;99.90;;;;;;6065968;23;92350;-73
2022/11/25 11:11:20;;;;;;;9.88;4.60;;;11.90;99.90;;;;;;6064586;23;94293;-73
2022/11/25 11:13:49;;;;;;;7.90;4.20;;;12.00;99.90;;;;;;6066425;23;92920;-73
2022/11/25 11:16:37;;;;;;;9.93;4.20;;;12.00;99.90;;;;;;6066468;23;92294;-74
2022/11/25 11:19:04;;;;;;;12.10;4.40;;;12.00;99.90;;;;;;6066258;23;92391;-73
2022/11/25 11:21:40;;;;;;;8.88;3.97;;;12.00;99.90;;;;;;6066439;23;93115;-73
2022/11/25 11:24:28;;;;;;;10.65;4.15;;;12.10;99.90;;;;;;6064765;23;95509;-74
2022/11/25 11:27:13;;;;;;;8.02;4.22;;;12.20;99.90;;;;;;6066007;23;92380;-74
2022/11/25 11:29:40;;;;;;;9.05;4.10;;;12.20;99.90;;;;;;6064985;23;92412;-73
2022/11/25 11:32:22;;;;;;;8.63;3.88;;;12.30;99.90;;;;;;6062826;23;96897;-73
2022/11/25 11:35:01;;;;;;;11.95;3.65;;;12.30;99.90;;;;;;6064559;23;96478;-73
2022/11/25 11:37:44;;;;;;;7.30;3.25;;;12.30;99.90;;;;;;6064863;23;92927;-73
2022/11/25 11:40:24;;;;;;;9.02;3.60;;;12.30;99.90;;;;;;6040447;23;92434;-74
2022/11/25 11:43:23;;;;;;;8.98;3.47;;;12.40;99.90;;;;;;6066206;23;93227;-73
2022/11/25 11:45:58;;;;;;;8.35;3.80;;;12.40;99.90;;;;;;6065415;23;92794;-73
2022/11/25 11:48:38;;;;;;;8.75;3.15;;;12.40;99.90;;;;;;6066478;23;92315;-73
2022/11/25 11:51:21;;;;;;;11.80;3.80;;;12.50;99.90;;;;;;6064841;23;91791;-73
2022/11/25 11:54:22;;;;;;;8.02;3.67;;;12.60;99.90;;;;;;6066018;23;92341;-73
2022/11/25 11:57:30;;;;;;;7.80;2.92;;;12.80;99.90;;;;;;6066037;23;92856;-73
2022/11/25 12:00:13;;;;;;;12.55;3.60;;;12.90;99.90;;;;;;6060384;23;94883;-73
2022/11/25 12:03:04;;;;;;;7.63;3.10;;;13.00;99.90;;;;;;6040478;23;92396;-73
2022/11/25 12:05:33;;;;;;;6.63;3.22;;;13.10;99.90;;;;;;6066006;23;93170;-73
2022/11/25 12:08:17;;;;;;;10.82;3.20;;;13.10;99.90;;;;;;6065503;23;93101;-73
2022/11/25 12:10:48;;;;;;;6.47;3.30;;;13.20;99.90;;;;;;6066290;23;92893;-73
2022/11/25 12:13:37;;;;;;;9.38;2.92;;;13.30;99.90;;;;;;6065908;23;92451;-73
2022/11/25 12:16:11;;;;;;;9.32;3.70;;;13.40;99.90;;;;;;6065858;23;93116;-74
2022/11/25 12:18:41;;;;;;;9.10;3.00;;;13.50;99.90;;;;;;6066639;23;93086;-75
2022/11/25 12:21:41;;;;;;;8.93;2.60;;;13.50;99.90;;;;;;6065571;23;92840;-74
2022/11/25 12:24:46;;;;;;;11.63;3.10;;;13.60;99.90;;;;;;6067217;23;93019;-74
2022/11/25 12:27:19;;;;;;;11.15;2.70;;;13.50;99.90;;;;;;6065078;23;95657;-74
2022/11/25 12:30:10;;;;;;;11.05;2.53;;;13.40;99.90;;;;;;6065244;23;97983;-74
2022/11/25 12:32:40;;;;;;;7.25;2.70;;;13.40;99.90;;;;;;6065567;23;92560;-74
2022/11/25 12:35:17;;;;;;;9.75;2.20;;;13.30;99.90;;;;;;6066909;23;92353;-74
2022/11/25 12:37:51;;;;;;;6.13;2.38;;;13.30;99.90;;;;;;6067020;23;92988;-74
2022/11/25 12:40:46;;;;;;;9.75;2.50;;;13.40;99.90;;;;;;6065207;23;93009;-74
2022/11/25 12:43:37;;;;;;;9.50;2.63;;;13.60;99.90;;;;;;6065504;23;92384;-74
2022/11/25 12:46:12;;;;;;;13.77;3.55;;;13.70;99.90;;;;;;6067254;23;91701;-74
2022/11/25 12:48:42;;;;;;;7.57;2.70;;;13.70;99.90;;;;;;6066889;23;93306;-74
2022/11/25 12:51:32;;;;;;;11.15;2.75;;;13.70;99.90;;;;;;6066698;23;92888;-74
2022/11/25 12:54:20;;;;;;;9.10;3.10;;;13.70;99.90;;;;;;6064500;23;94777;-74
2022/11/25 12:57:23;;;;;;;6.75;2.53;;;13.60;99.90;;;;;;6067160;23;92420;-74
2022/11/25 13:00:24;;;;;;;8.48;2.00;;;13.60;99.90;;;;;;6065412;23;93205;-74
2022/11/25 13:03:43;;;;;;;9.07;2.42;;;13.50;99.90;;;;;;6066546;23;92977;-74
2022/11/25 13:06:30;;;;;;;7.95;2.50;;;13.40;99.90;;;;;;6065438;23;92675;-74
2022/11/25 13:09:06;;;;;;;11.13;2.72;;;13.40;99.90;;;;;;6067068;23;92360;-74
2022/11/25 13:12:09;;;;;;;13.43;3.25;;;13.30;99.90;;;;;;6066869;23;93103;-74
2022/11/25 13:15:11;;;;;;;12.50;2.97;;;13.30;99.90;;;;;;6065739;23;91918;-74
2022/11/25 13:17:44;;;;;;;10.07;3.05;;;13.20;99.90;;;;;;6065554;23;92382;-73
2022/11/25 13:20:26;;;;;;;10.43;2.88;;;13.20;99.90;;;;;;6065366;23;92338;-73
2022/11/25 13:23:23;;;;;;;8.38;2.75;;;13.20;99.90;;;;;;6065294;23;94813;-74
2022/11/25 13:25:52;;;;;;;10.48;2.63;;;13.20;99.90;;;;;;6063135;23;95482;-73
2022/11/25 13:28:36;;;;;;;7.97;2.88;;;13.10;99.90;;;;;;6066757;23;92366;-74